This is the latest recevied weather packets stored in our database for station/object KD8FRE. If no packets are shown the sender has not sent any weather packets the latest 10 day(s).
| Time | Temp. | Humidity | Pressure | Rain* | Wind** | Luminosity | Snow |
|---|---|---|---|---|---|---|---|
| 1777649228 | 7.78° C | 61% | 1014 hPa | 0 mm | - | 392 W/m² | - |
| 1777648925 | 8.33° C | 59% | 1013.9 hPa | 0 mm | - | 129 W/m² | - |
| 1777648622 | 7.78° C | 61% | 1013.8 hPa | 0 mm | - | 300 W/m² | - |
| 1777648318 | 7.78° C | 61% | 1013.9 hPa | 0 mm | - | 130 W/m² | - |
| 1777648015 | 7.78° C | 64% | 1014 hPa | 0 mm | - | 414 W/m² | - |
| 1777647711 | 7.78° C | 65% | 1013.9 hPa | 0 mm | - | 302 W/m² | - |
| 1777647407 | 7.78° C | 65% | 1014 hPa | 0 mm | - | 210 W/m² | - |
| 1777647106 | 7.78° C | 65% | 1014 hPa | 0 mm | - | 177 W/m² | - |
| 1777646802 | 7.22° C | 68% | 1013.9 hPa | 0 mm | - | 290 W/m² | - |
| 1777646496 | 7.22° C | 67% | 1014 hPa | 0 mm | - | 159 W/m² | - |
| 1777646193 | 7.22° C | 68% | 1013.9 hPa | 0 mm | - | 143 W/m² | - |
| 1777645891 | 7.22° C | 67% | 1014 hPa | 0 mm | - | 132 W/m² | - |
| 1777645588 | 7.78° C | 67% | 1014 hPa | 0 mm | - | 209 W/m² | - |
| 1777645284 | 7.22° C | 68% | 1014 hPa | 0 mm | - | 222 W/m² | - |
| 1777644979 | 7.22° C | 68% | 1014.1 hPa | 0 mm | - | 232 W/m² | - |
| 1777644678 | 7.22° C | 69% | 1014.1 hPa | 0 mm | - | 206 W/m² | - |
| 1777644373 | 7.22° C | 71% | 1014.1 hPa | 0 mm | - | 197 W/m² | - |
| 1777644070 | 6.67° C | 73% | 1014.1 hPa | 0 mm | - | 163 W/m² | - |
| 1777643766 | 6.67° C | 73% | 1013.9 hPa | 0 mm | - | 152 W/m² | - |
| 1777643464 | 6.67° C | 74% | 1014 hPa | 0 mm | - | 136 W/m² | - |
| 1777643161 | 6.11° C | 75% | 1013.9 hPa | 0 mm | - | 142 W/m² | - |
| 1777642857 | 6.11° C | 74% | 1013.8 hPa | 0 mm | - | 136 W/m² | - |
| 1777642554 | 6.11° C | 75% | 1013.9 hPa | 0 mm | - | 168 W/m² | - |
| 1777642250 | 6.11° C | 74% | 1014 hPa | 0 mm | - | 151 W/m² | - |
| 1777641948 | 6.67° C | 75% | 1013.9 hPa | 0 mm | - | 139 W/m² | - |
* Rain latest hour (hover to see other rain measurements)
** Current wind speed in m/s (hover to see current wind gust speed)